Strathaven, United Kingdom

8:24 AM BST on September 05, 2015 (GMT +0100)
Strathaven | | Change Station
CLOSE
Current Station
Personal Weather Station
Location: Strathaven,
Elevation: 636 ft
Nearby Weather Stations

Elev 636 ft 55.67 °N, 4.07 °W | Updated 5 minutes ago

Partly Cloudy
Partly Cloudy
48.0 °F
Feels Like 48 °F
N
1.6
Wind Variable Wind from East
Gusts 3.1 mph

Today
High -- | Low -- °F
--% Chance of Precip.
Yesterday
High -- | Low -- °F
Precip. -- in
6:28 AM 8:01 PM
Waning Gibbous, 51% visible
Pressure 30.27 in
Visibility 6.2 miles
Clouds Few 3000 ft
Windchill 48 °F
Dew Point 40 °F
Humidity 73%
Rainfall 0.00 in
Snow Depth Not available.
UV 1 out of 12
Pollen Not available.
Air Quality Not available.
Flu Activity Not available.
METAR EGPK 050720Z 00000KT 9999 FEW030 06/05 Q1025
Pressure 30.27 in
Visibility 6.2 miles
Clouds Few 3000 ft
Windchill 48 °F
Dew Point 40 °F
Humidity 73%
Rainfall 0.00 in
Snow Depth Not available.
UV 1 out of 12
Pollen Not available.
Air Quality Not available.
Flu Activity Not available.
METAR EGPK 050720Z 00000KT 9999 FEW030 06/05 Q1025

10-Day Weather Forecast

×

Almanac

Astronomy

Sep. 05, 2015 Rise Set
Actual Time
Civil Twilight
Nautical Twilight
Astronomical Twilight
Moon
Length of Visible Light
Length of Day
Tomorrow will be .
, % of the Moon is Illuminated

Today's Extremes

Country Highs Country Lows

Community

WunderPhotos

Upload Photos

1,852,430 photos uploaded!

WunderBlogs® & News

Nearby

Air Quality

  Air Quality AQ Index Pollutant
Not available.

Snow Depth

Station Depth Elevation

Earthquake Activity

City Distance Mag. Time & Date
Minimum magnitude displayed is 2.5.

Coastal Water Temperatures

Place Temperature

Stations

Nearby Weather Stations

Station Location Temp. Windchill Dew Point Humidity Wind Precip. Elev Updated Type